Time;durP1;ratioP1;P1;durP2;ratioP2;P2;SDS_P1;SDS_P2;PMS_P1;PMS_P2;Temp;Humidity;BMP_temperature;BMP_pressure;BME280_temperature;BME280_humidity;BME280_pressure;Samples;Min_cycle;Max_cycle;Signal;HPM_P1;HPM_P2
2021/12/26 00:02:47;;;;;;;45.90;28.50;;;23.20;39.30;;;;;;214179;1312;23924;-55
2021/12/26 00:07:51;;;;;;;43.50;27.50;;;23.10;39.60;;;;;;214346;1312;22609;-55
2021/12/26 00:12:59;;;;;;;45.70;28.70;;;23.10;39.30;;;;;;214304;1313;25063;-57
2021/12/26 00:18:03;;;;;;;45.10;28.50;;;23.20;39.30;;;;;;214122;1312;22695;-55
2021/12/26 00:23:07;;;;;;;47.60;30.10;;;23.20;39.20;;;;;;214416;1309;25246;-54
2021/12/26 00:28:11;;;;;;;45.90;29.30;;;23.10;39.20;;;;;;214427;1310;25328;-51
2021/12/26 00:33:16;;;;;;;46.80;30.40;;;23.10;39.40;;;;;;214475;1309;22672;-54
2021/12/26 00:38:20;;;;;;;46.60;29.80;;;23.00;39.20;;;;;;214670;1309;22758;-56
2021/12/26 00:43:26;;;;;;;49.30;30.70;;;23.10;39.40;;;;;;214123;1309;24367;-58
2021/12/26 00:48:33;;;;;;;47.50;30.00;;;23.10;39.10;;;;;;214287;1312;24807;-56
2021/12/26 00:53:37;;;;;;;48.70;30.90;;;23.20;39.00;;;;;;214247;1311;22581;-53
2021/12/26 00:58:41;;;;;;;48.80;31.00;;;23.20;38.80;;;;;;214067;1307;25511;-56
2021/12/26 01:03:46;;;;;;;48.70;29.90;;;23.20;38.80;;;;;;214033;1312;408692;-52
2021/12/26 01:08:52;;;;;;;48.80;29.40;;;23.20;38.80;;;;;;214480;1309;22948;-56
2021/12/26 01:13:57;;;;;;;51.20;31.60;;;23.20;38.80;;;;;;214158;1309;24293;-54
2021/12/26 01:19:25;;;;;;;49.10;31.70;;;23.10;38.90;;;;;;214308;1309;22571;-55
2021/12/26 01:24:31;;;;;;;51.20;32.20;;;23.20;39.00;;;;;;214111;1309;22575;-53
2021/12/26 01:29:36;;;;;;;48.50;30.70;;;23.10;39.00;;;;;;214565;1309;23010;-54
2021/12/26 01:34:40;;;;;;;51.20;32.20;;;23.10;38.90;;;;;;213893;1313;22636;-56
2021/12/26 01:39:59;;;;;;;49.20;30.80;;;23.00;39.30;;;;;;214266;1312;22798;-53
2021/12/26 01:45:12;;;;;;;47.80;30.70;;;23.00;38.90;;;;;;214455;1309;24295;-52
2021/12/26 01:50:28;;;;;;;48.80;32.20;;;23.10;39.00;;;;;;214270;1309;22762;-54
2021/12/26 01:55:42;;;;;;;49.40;30.10;;;23.10;39.00;;;;;;214500;1309;25325;-56
2021/12/26 02:00:53;;;;;;;52.90;32.60;;;23.00;38.80;;;;;;214297;1309;25485;-56
2021/12/26 02:05:57;;;;;;;50.00;31.80;;;23.10;39.10;;;;;;214276;1310;22657;-58
2021/12/26 02:11:02;;;;;;;52.40;33.00;;;23.10;38.70;;;;;;214205;1310;24193;-55
2021/12/26 02:16:08;;;;;;;48.20;30.40;;;23.10;38.80;;;;;;214024;1313;22617;-53
2021/12/26 02:21:53;;;;;;;46.70;29.50;;;23.20;38.50;;;;;;214023;1312;22597;-52
2021/12/26 02:32:17;;;;;;;49.90;30.90;;;23.20;38.60;;;;;;213959;1310;24333;-56
2021/12/26 02:37:20;;;;;;;52.10;31.90;;;23.10;38.40;;;;;;214242;1312;24316;-55
2021/12/26 02:42:25;;;;;;;49.70;31.90;;;23.20;38.50;;;;;;214245;1312;24326;-57
2021/12/26 02:47:41;;;;;;;50.70;31.70;;;23.10;38.50;;;;;;214340;1309;22558;-55
2021/12/26 02:52:46;;;;;;;51.40;33.10;;;23.10;38.50;;;;;;214149;1309;22559;-55
2021/12/26 02:57:56;;;;;;;50.10;31.90;;;23.00;38.60;;;;;;214312;1311;22754;-57
2021/12/26 03:03:03;;;;;;;47.00;29.80;;;23.00;38.60;;;;;;213891;1309;25928;-53
2021/12/26 03:08:12;;;;;;;49.00;31.80;;;23.00;38.60;;;;;;214072;1309;22551;-56
2021/12/26 03:13:16;;;;;;;49.70;30.50;;;23.00;38.50;;;;;;214354;1310;25387;-52
2021/12/26 03:18:20;;;;;;;47.70;29.80;;;23.10;39.20;;;;;;214384;1309;25455;-53
2021/12/26 03:23:26;;;;;;;45.90;30.10;;;23.10;38.60;;;;;;214340;1309;22616;-58
2021/12/26 03:28:31;;;;;;;46.80;29.90;;;23.00;38.50;;;;;;214401;1309;25429;-55
2021/12/26 03:33:35;;;;;;;50.90;31.10;;;23.10;38.40;;;;;;214173;1309;26645;-54
2021/12/26 03:38:39;;;;;;;49.70;30.40;;;23.10;38.30;;;;;;214252;1313;22590;-54
2021/12/26 03:43:46;;;;;;;47.10;31.50;;;23.10;38.20;;;;;;214256;1309;23278;-55
2021/12/26 03:48:49;;;;;;;45.40;29.00;;;23.10;38.20;;;;;;214055;1312;24218;-54
2021/12/26 03:53:53;;;;;;;47.30;29.50;;;23.10;38.50;;;;;;214410;1309;25758;-52
2021/12/26 03:58:58;;;;;;;49.70;31.10;;;23.10;38.10;;;;;;214052;1309;25290;-57
2021/12/26 04:04:02;;;;;;;43.60;27.70;;;23.10;38.20;;;;;;214636;1310;22574;-57
2021/12/26 04:09:08;;;;;;;47.00;29.70;;;23.10;38.30;;;;;;214247;1309;22577;-53
2021/12/26 04:14:13;;;;;;;46.30;30.80;;;23.00;38.20;;;;;;214173;1310;24405;-53
2021/12/26 04:19:18;;;;;;;48.80;30.70;;;23.10;38.90;;;;;;214251;1309;25262;-56
2021/12/26 04:24:22;;;;;;;46.90;30.20;;;23.00;38.20;;;;;;214420;1308;22577;-57
2021/12/26 04:29:25;;;;;;;45.30;29.70;;;23.00;38.40;;;;;;214615;1309;24333;-53
2021/12/26 04:34:29;;;;;;;47.80;30.00;;;23.00;38.30;;;;;;214165;1309;25370;-53
2021/12/26 04:39:33;;;;;;;46.20;29.40;;;22.90;38.90;;;;;;214345;1309;22593;-53
2021/12/26 04:44:37;;;;;;;45.40;28.90;;;23.00;38.20;;;;;;214396;1309;22617;-55
2021/12/26 04:50:12;;;;;;;46.20;29.20;;;23.00;38.20;;;;;;214279;1309;23246;-54
2021/12/26 04:55:24;;;;;;;46.20;29.70;;;23.00;38.10;;;;;;214591;1309;25268;-54
2021/12/26 05:00:30;;;;;;;43.50;29.10;;;23.10;38.00;;;;;;214150;1309;25627;-55
2021/12/26 05:05:35;;;;;;;46.20;29.00;;;23.10;38.20;;;;;;214157;1309;22627;-57
2021/12/26 05:10:39;;;;;;;45.80;29.60;;;23.10;37.70;;;;;;214172;1309;22555;-54
2021/12/26 05:15:43;;;;;;;43.90;29.10;;;23.00;37.80;;;;;;214264;1309;22586;-55
2021/12/26 05:20:47;;;;;;;44.50;29.40;;;23.00;37.80;;;;;;214200;1312;22678;-55
2021/12/26 05:25:51;;;;;;;47.00;29.10;;;23.00;38.10;;;;;;214369;1309;22630;-54
2021/12/26 05:30:55;;;;;;;43.90;27.90;;;23.00;37.80;;;;;;214363;1309;22976;-53
2021/12/26 05:36:01;;;;;;;46.10;28.40;;;23.10;37.90;;;;;;214378;1310;22555;-55
2021/12/26 05:41:07;;;;;;;45.40;29.20;;;23.10;37.80;;;;;;214258;1310;22587;-55
2021/12/26 05:46:15;;;;;;;43.50;28.10;;;23.00;37.90;;;;;;214333;1309;22623;-52
2021/12/26 05:51:19;;;;;;;43.00;27.60;;;23.00;37.80;;;;;;214157;1309;25474;-55
2021/12/26 05:56:51;;;;;;;41.90;27.10;;;23.10;37.90;;;;;;214120;1309;24333;-55
2021/12/26 06:01:55;;;;;;;41.20;27.40;;;23.00;38.00;;;;;;214160;1312;25249;-55
2021/12/26 06:06:59;;;;;;;42.40;27.60;;;22.90;38.00;;;;;;214624;1309;22577;-54
2021/12/26 06:12:04;;;;;;;42.00;27.60;;;23.00;37.80;;;;;;214410;1310;22517;-55
2021/12/26 06:17:09;;;;;;;42.60;27.70;;;23.00;37.80;;;;;;214245;1309;22562;-53
2021/12/26 06:22:35;;;;;;;38.80;26.00;;;23.00;37.70;;;;;;214484;1310;23958;-55
2021/12/26 06:27:42;;;;;;;42.00;26.90;;;23.10;37.80;;;;;;214389;1309;24301;-55
2021/12/26 06:32:55;;;;;;;43.50;28.40;;;23.10;37.50;;;;;;214283;1309;24283;-54
2021/12/26 06:38:19;;;;;;;41.30;27.10;;;23.00;37.50;;;;;;214434;1309;23461;-56
2021/12/26 06:43:42;;;;;;;37.80;25.30;;;23.00;37.50;;;;;;214527;1309;22602;-53
2021/12/26 06:49:05;;;;;;;44.30;27.90;;;23.00;37.60;;;;;;214485;1309;25377;-55
2021/12/26 06:54:09;;;;;;;41.50;26.50;;;22.90;37.80;;;;;;214429;1309;22516;-57
2021/12/26 06:59:13;;;;;;;39.70;25.30;;;22.90;37.60;;;;;;214491;1309;25239;-52
2021/12/26 07:04:16;;;;;;;40.30;26.00;;;23.00;37.60;;;;;;214393;1309;22590;-57
2021/12/26 07:09:20;;;;;;;39.40;25.60;;;22.90;37.60;;;;;;214401;1309;22751;-56
2021/12/26 07:14:28;;;;;;;43.50;27.10;;;22.90;37.50;;;;;;213790;1311;22756;-57
2021/12/26 07:19:32;;;;;;;41.20;26.40;;;22.90;37.60;;;;;;214410;1309;22558;-52
2021/12/26 07:24:43;;;;;;;42.40;27.20;;;23.00;37.50;;;;;;214063;1309;22597;-56
2021/12/26 07:29:48;;;;;;;39.10;26.50;;;23.00;37.50;;;;;;214448;1308;22564;-55
2021/12/26 07:34:52;;;;;;;40.10;25.10;;;22.90;37.50;;;;;;214291;1310;23113;-55
2021/12/26 07:39:55;;;;;;;38.50;25.20;;;23.00;37.50;;;;;;214080;1309;25252;-57
2021/12/26 07:44:59;;;;;;;41.90;27.90;;;23.10;37.30;;;;;;214140;1309;22580;-54
2021/12/26 07:50:15;;;;;;;38.60;25.90;;;23.10;37.20;;;;;;214211;1309;22655;-55
2021/12/26 07:55:39;;;;;;;40.10;26.80;;;23.10;37.20;;;;;;214333;1309;22670;-55
2021/12/26 08:01:05;;;;;;;38.80;25.70;;;23.10;37.20;;;;;;213956;1312;25402;-55
2021/12/26 08:06:30;;;;;;;40.60;26.60;;;23.10;37.30;;;;;;214284;1309;22576;-54
2021/12/26 08:11:34;;;;;;;35.40;24.60;;;23.10;37.40;;;;;;214642;1309;24014;-55
2021/12/26 08:16:38;;;;;;;43.60;27.50;;;23.10;37.70;;;;;;214294;1314;25419;-52
2021/12/26 08:21:43;;;;;;;39.90;26.10;;;23.10;37.60;;;;;;214426;1310;22577;-56
2021/12/26 08:26:51;;;;;;;39.20;26.10;;;23.10;37.20;;;;;;214672;1309;23671;-55
2021/12/26 08:32:01;;;;;;;40.40;26.60;;;23.10;37.20;;;;;;214462;1309;25402;-55
2021/12/26 08:37:05;;;;;;;40.70;26.60;;;23.10;37.80;;;;;;214141;1312;24706;-58
2021/12/26 08:42:11;;;;;;;42.00;26.20;;;23.20;37.20;;;;;;214402;1309;22561;-55
2021/12/26 08:47:24;;;;;;;39.50;25.10;;;23.20;37.20;;;;;;214695;1309;26535;-53
2021/12/26 08:52:31;;;;;;;39.60;27.20;;;23.10;37.20;;;;;;214555;1309;24291;-54
2021/12/26 08:57:35;;;;;;;40.70;27.20;;;23.10;37.70;;;;;;214325;1312;22583;-52
2021/12/26 09:02:41;;;;;;;42.70;27.30;;;23.10;37.50;;;;;;214704;1309;22655;-54
2021/12/26 09:07:47;;;;;;;37.80;25.20;;;23.00;37.90;;;;;;214212;1309;196883;-56
2021/12/26 09:12:51;;;;;;;40.70;27.00;;;23.00;37.70;;;;;;214260;1309;24318;-55
2021/12/26 09:17:57;;;;;;;37.20;25.30;;;22.90;37.80;;;;;;214406;1309;22567;-52
2021/12/26 09:23:01;;;;;;;40.50;26.40;;;23.00;38.50;;;;;;214514;1309;25274;-52
2021/12/26 09:28:04;;;;;;;38.40;25.30;;;22.90;38.00;;;;;;214412;1313;22604;-57
2021/12/26 09:33:08;;;;;;;38.70;25.90;;;22.90;37.90;;;;;;214534;1309;25190;-55
2021/12/26 09:38:11;;;;;;;38.90;25.30;;;22.90;37.90;;;;;;214479;1309;22658;-54
2021/12/26 09:43:15;;;;;;;40.00;25.10;;;22.90;38.20;;;;;;213884;1310;22634;-54
2021/12/26 09:48:19;;;;;;;38.70;25.00;;;22.90;37.90;;;;;;214378;1309;24400;-56
2021/12/26 09:53:23;;;;;;;37.40;24.90;;;22.90;37.80;;;;;;214588;1309;25477;-52
2021/12/26 09:59:00;;;;;;;38.00;25.40;;;23.00;38.30;;;;;;214410;1309;24309;-55
2021/12/26 10:04:09;;;;;;;36.90;23.90;;;23.00;37.90;;;;;;214390;1310;25990;-56
2021/12/26 10:09:15;;;;;;;37.80;24.20;;;23.10;37.90;;;;;;214199;1309;22564;-56
2021/12/26 10:14:33;;;;;;;38.90;25.50;;;23.10;37.70;;;;;;214460;1309;23113;-55
2021/12/26 10:19:39;;;;;;;37.40;24.40;;;23.10;37.80;;;;;;214241;1309;25435;-57
2021/12/26 10:24:49;;;;;;;39.10;24.50;;;23.10;38.10;;;;;;214490;1309;24123;-56
2021/12/26 10:30:05;;;;;;;35.30;23.40;;;23.10;38.20;;;;;;214482;1310;22700;-55
2021/12/26 10:35:12;;;;;;;40.60;25.00;;;23.10;38.40;;;;;;214704;1309;24272;-55
2021/12/26 10:40:22;;;;;;;38.00;24.80;;;23.10;38.40;;;;;;214485;1314;22593;-56
2021/12/26 10:45:35;;;;;;;35.20;22.90;;;23.20;37.90;;;;;;214305;1315;25361;-54
2021/12/26 10:50:41;;;;;;;34.70;22.90;;;23.30;38.00;;;;;;214506;1309;22802;-56
2021/12/26 10:55:51;;;;;;;36.70;23.40;;;23.40;38.00;;;;;;214017;1316;25601;-56
2021/12/26 11:00:59;;;;;;;35.90;23.90;;;23.40;37.40;;;;;;214399;1312;22859;-55
2021/12/26 11:06:08;;;;;;;34.50;24.10;;;23.50;37.60;;;;;;214566;1309;25450;-54
2021/12/26 11:11:20;;;;;;;35.40;23.50;;;23.60;37.10;;;;;;214225;1309;22665;-55
2021/12/26 11:16:37;;;;;;;31.80;21.70;;;23.60;37.40;;;;;;214341;1309;22770;-55
2021/12/26 11:21:42;;;;;;;31.70;21.00;;;23.70;37.40;;;;;;214299;1312;24276;-52
2021/12/26 11:26:46;;;;;;;36.50;22.20;;;23.70;37.30;;;;;;214461;1309;25454;-55
2021/12/26 11:31:53;;;;;;;33.60;22.10;;;23.80;37.30;;;;;;214444;1309;22598;-55
2021/12/26 11:37:02;;;;;;;32.00;22.00;;;23.80;37.40;;;;;;214381;1309;24323;-53
2021/12/26 11:42:59;;;;;;;31.90;22.10;;;23.80;37.40;;;;;;213940;1309;22570;-54
2021/12/26 11:49:26;;;;;;;29.70;21.20;;;23.80;37.50;;;;;;214420;1315;25530;-57
2021/12/26 11:54:58;;;;;;;31.10;20.80;;;23.80;37.80;;;;;;213909;1314;24403;-55
2021/12/26 12:00:25;;;;;;;30.60;20.40;;;23.80;37.50;;;;;;214255;1316;26861;-55
2021/12/26 12:05:40;;;;;;;29.30;20.50;;;23.80;37.40;;;;;;214465;1310;24235;-54
2021/12/26 12:10:55;;;;;;;28.60;20.60;;;23.80;37.50;;;;;;214533;1309;22608;-55
2021/12/26 12:16:05;;;;;;;30.00;19.60;;;23.80;37.10;;;;;;214280;1309;24313;-54
2021/12/26 12:21:22;;;;;;;31.00;19.80;;;23.90;37.50;;;;;;214336;1310;24277;-55
2021/12/26 12:26:56;;;;;;;26.70;19.40;;;23.90;37.50;;;;;;214413;1309;25547;-55
2021/12/26 12:32:08;;;;;;;26.30;18.90;;;23.90;37.50;;;;;;214436;1310;22597;-52
2021/12/26 12:37:50;;;;;;;27.50;19.00;;;23.90;37.60;;;;;;214365;1309;22545;-52
2021/12/26 12:43:09;;;;;;;24.10;16.30;;;23.90;37.60;;;;;;213871;1310;23088;-54
2021/12/26 12:48:44;;;;;;;27.60;19.30;;;23.80;37.60;;;;;;214358;1309;25581;-53
2021/12/26 12:53:47;;;;;;;24.60;18.10;;;23.90;38.00;;;;;;214398;1309;24323;-51
2021/12/26 12:59:21;;;;;;;26.60;18.50;;;23.80;37.70;;;;;;214384;1313;25271;-51
2021/12/26 13:04:47;;;;;;;26.50;18.40;;;23.80;37.80;;;;;;214458;1309;26590;-56
2021/12/26 13:10:00;;;;;;;28.10;19.10;;;23.80;38.20;;;;;;214678;1310;22648;-53
2021/12/26 13:15:04;;;;;;;24.00;16.80;;;23.70;38.20;;;;;;214544;1309;22719;-55
2021/12/26 13:20:25;;;;;;;26.30;18.20;;;23.70;37.90;;;;;;214464;1310;24348;-56
2021/12/26 13:25:45;;;;;;;25.60;17.30;;;23.70;37.90;;;;;;214513;1315;22645;-52
2021/12/26 13:31:09;;;;;;;27.20;17.30;;;23.70;37.90;;;;;;214411;1309;23101;-53
2021/12/26 13:36:19;;;;;;;23.80;16.80;;;23.60;38.00;;;;;;214586;1309;24378;-53
2021/12/26 13:41:25;;;;;;;;;;;23.60;38.30;;;;;;214334;1309;24326;-52
2021/12/26 13:46:35;;;;;;;23.30;16.60;;;23.60;37.90;;;;;;214355;1310;24333;-52
2021/12/26 13:51:49;;;;;;;23.90;16.00;;;23.50;38.00;;;;;;214237;1312;22625;-55
2021/12/26 13:56:59;;;;;;;24.90;16.80;;;23.50;38.00;;;;;;214514;1309;22587;-54
2021/12/26 14:02:05;;;;;;;24.30;16.00;;;23.50;38.20;;;;;;214344;1310;24280;-54
2021/12/26 14:07:12;;;;;;;23.00;15.80;;;23.40;38.20;;;;;;214308;1315;22559;-52
2021/12/26 14:12:27;;;;;;;23.90;16.00;;;23.40;38.20;;;;;;214430;1314;24415;-57
2021/12/26 14:17:32;;;;;;;22.50;15.30;;;23.30;38.20;;;;;;214551;1309;22669;-53
2021/12/26 14:22:35;;;;;;;21.90;15.20;;;23.30;38.50;;;;;;214237;1316;22590;-51
2021/12/26 14:27:43;;;;;;;22.70;15.40;;;23.30;38.30;;;;;;214412;1310;22574;-52
2021/12/26 14:33:05;;;;;;;20.30;14.60;;;23.30;38.20;;;;;;214377;1312;22662;-54
2021/12/26 14:38:14;;;;;;;23.80;15.30;;;23.30;38.30;;;;;;214356;1314;22581;-50
2021/12/26 14:43:18;;;;;;;23.80;15.60;;;23.30;38.10;;;;;;214538;1315;22603;-56
2021/12/26 14:48:33;;;;;;;20.80;14.20;;;23.40;38.10;;;;;;214331;1309;24273;-54
2021/12/26 14:53:38;;;;;;;21.70;14.90;;;23.40;38.00;;;;;;214242;1316;22561;-54
2021/12/26 14:58:50;;;;;;;21.90;14.90;;;23.40;38.00;;;;;;214342;1310;25255;-53
2021/12/26 15:04:14;;;;;;;22.10;15.20;;;23.40;38.00;;;;;;214436;1309;22553;-53
2021/12/26 15:09:49;;;;;;;22.60;15.10;;;23.30;38.00;;;;;;214549;1315;24257;-53
2021/12/26 15:15:16;;;;;;;22.90;15.10;;;23.30;38.30;;;;;;214131;1315;25380;-52
2021/12/26 15:20:20;;;;;;;21.40;14.10;;;23.30;38.30;;;;;;214448;1314;24251;-52
2021/12/26 15:25:29;;;;;;;21.90;14.40;;;23.30;38.00;;;;;;214410;1309;22681;-54
2021/12/26 15:30:33;;;;;;;21.60;15.40;;;23.30;38.00;;;;;;214261;1312;22789;-55
2021/12/26 15:35:38;;;;;;;21.90;15.30;;;23.20;38.20;;;;;;214405;1309;22593;-55
2021/12/26 15:40:41;;;;;;;22.20;14.60;;;23.20;38.00;;;;;;214216;1312;24336;-55
2021/12/26 15:45:45;;;;;;;21.00;14.90;;;23.30;38.00;;;;;;214176;1312;22577;-52
2021/12/26 15:50:49;;;;;;;21.40;15.00;;;23.30;38.00;;;;;;214462;1315;22596;-54
2021/12/26 15:55:53;;;;;;;22.00;14.40;;;23.30;37.90;;;;;;214194;1315;25281;-52
2021/12/26 16:00:57;;;;;;;22.00;14.70;;;23.30;37.80;;;;;;214380;1315;22623;-55
2021/12/26 16:06:02;;;;;;;19.80;13.00;;;23.40;37.60;;;;;;214283;1313;22586;-55
2021/12/26 16:11:06;;;;;;;21.30;15.20;;;23.40;37.60;;;;;;214441;1315;25620;-52
2021/12/26 16:16:09;;;;;;;24.30;16.10;;;23.40;37.60;;;;;;214541;1314;25494;-52
2021/12/26 16:21:13;;;;;;;22.00;14.80;;;23.30;37.50;;;;;;214419;1314;22593;-56
2021/12/26 16:26:17;;;;;;;21.30;14.70;;;23.30;37.70;;;;;;214519;1309;24365;-55
2021/12/26 16:31:21;;;;;;;24.10;15.90;;;23.30;37.70;;;;;;214440;1315;22777;-55
2021/12/26 16:36:25;;;;;;;24.10;15.40;;;23.30;37.70;;;;;;214413;1315;22586;-53
2021/12/26 16:41:28;;;;;;;24.80;16.70;;;23.20;37.70;;;;;;214579;1314;22611;-52
2021/12/26 16:46:33;;;;;;;25.30;16.60;;;23.20;37.70;;;;;;214234;1314;25409;-55
2021/12/26 16:51:37;;;;;;;24.10;16.10;;;23.20;37.70;;;;;;214517;1315;24319;-56
2021/12/26 16:56:41;;;;;;;22.90;16.20;;;23.20;37.70;;;;;;214429;1315;22654;-52
2021/12/26 17:01:44;;;;;;;24.90;16.70;;;23.20;37.60;;;;;;214229;1315;22585;-55
2021/12/26 17:06:51;;;;;;;24.20;16.60;;;23.30;37.50;;;;;;214305;1315;317325;-52
2021/12/26 17:11:57;;;;;;;24.80;16.20;;;23.30;37.30;;;;;;214353;1313;25551;-50
2021/12/26 17:17:01;;;;;;;27.40;17.60;;;23.30;37.40;;;;;;214481;1313;26050;-55
2021/12/26 17:22:04;;;;;;;27.00;17.70;;;23.40;37.30;;;;;;214418;1316;22629;-53
2021/12/26 17:27:19;;;;;;;27.60;18.00;;;23.30;37.40;;;;;;214363;1314;26627;-51
2021/12/26 17:32:24;;;;;;;28.00;17.90;;;23.30;37.70;;;;;;214309;1314;23249;-52
2021/12/26 17:37:28;;;;;;;26.50;17.70;;;23.30;37.30;;;;;;214478;1310;25281;-55
2021/12/26 17:42:31;;;;;;;29.50;19.00;;;23.30;37.50;;;;;;214455;1314;23458;-56
2021/12/26 17:47:37;;;;;;;25.60;17.30;;;23.20;37.30;;;;;;214465;1310;26952;-54
2021/12/26 17:52:42;;;;;;;30.10;19.40;;;23.20;38.10;;;;;;214365;1309;22610;-54
2021/12/26 17:57:48;;;;;;;26.40;17.90;;;23.20;37.40;;;;;;214278;1310;22647;-54
2021/12/26 18:02:52;;;;;;;27.80;18.10;;;23.20;37.50;;;;;;214480;1314;22613;-51
2021/12/26 18:07:58;;;;;;;27.70;18.40;;;23.20;37.60;;;;;;214296;1309;22612;-56
2021/12/26 18:13:03;;;;;;;28.70;19.10;;;23.20;37.70;;;;;;214458;1312;22586;-55
2021/12/26 18:18:06;;;;;;;28.60;18.10;;;23.20;37.40;;;;;;214568;1309;22780;-54
2021/12/26 18:23:10;;;;;;;30.00;18.80;;;23.20;37.30;;;;;;214419;1309;22586;-54
2021/12/26 18:28:15;;;;;;;28.00;18.90;;;23.20;37.30;;;;;;214226;1312;22592;-55
2021/12/26 18:33:22;;;;;;;26.40;18.80;;;23.30;37.20;;;;;;214467;1310;26685;-54
2021/12/26 18:38:26;;;;;;;27.90;18.30;;;23.30;37.10;;;;;;214223;1309;22613;-55
2021/12/26 18:43:30;;;;;;;30.40;19.70;;;23.30;37.00;;;;;;214539;1316;22571;-53
2021/12/26 18:48:34;;;;;;;30.60;20.10;;;23.20;37.00;;;;;;214331;1309;25654;-54
2021/12/26 18:53:40;;;;;;;29.70;20.30;;;23.20;37.20;;;;;;214428;1309;25602;-57
2021/12/26 18:58:44;;;;;;;29.70;20.60;;;23.20;37.20;;;;;;214374;1312;25390;-54
2021/12/26 19:03:48;;;;;;;28.00;19.90;;;23.20;37.10;;;;;;214292;1312;22797;-53
2021/12/26 19:08:57;;;;;;;29.10;19.70;;;23.20;37.20;;;;;;214235;1308;27430;-54
2021/12/26 19:14:07;;;;;;;32.00;20.80;;;23.20;37.30;;;;;;214523;1309;22726;-56
2021/12/26 19:19:10;;;;;;;31.00;20.40;;;23.20;37.20;;;;;;214344;1309;24277;-54
2021/12/26 19:24:16;;;;;;;31.00;21.00;;;23.20;37.10;;;;;;214439;1309;22668;-55
2021/12/26 19:29:21;;;;;;;31.40;21.60;;;23.20;37.10;;;;;;214188;1309;22599;-52
2021/12/26 19:34:25;;;;;;;40.20;24.80;;;23.20;37.20;;;;;;214257;1310;25540;-54
2021/12/26 19:39:30;;;;;;;44.60;24.20;;;23.10;36.30;;;;;;214672;1309;22563;-54
2021/12/26 19:44:35;;;;;;;41.00;24.80;;;23.10;36.60;;;;;;213316;1312;25458;-56
2021/12/26 19:49:45;;;;;;;42.30;24.20;;;23.10;37.40;;;;;;213822;1312;24339;-54
2021/12/26 19:54:48;;;;;;;42.40;23.80;;;23.00;37.20;;;;;;213679;1312;25249;-54
2021/12/26 19:59:53;;;;;;;39.70;24.00;;;23.00;37.10;;;;;;213432;1312;22609;-52
2021/12/26 20:05:00;;;;;;;38.60;24.40;;;23.00;37.60;;;;;;213943;1314;22672;-53
2021/12/26 20:10:05;;;;;;;52.00;24.40;;;22.90;37.80;;;;;;214466;1312;22716;-53
2021/12/26 20:15:12;;;;;;;43.40;24.90;;;22.90;38.20;;;;;;214192;1309;24283;-51
2021/12/26 20:20:19;;;;;;;42.40;25.30;;;22.90;38.10;;;;;;214223;1309;25254;-54
2021/12/26 20:25:28;;;;;;;40.70;25.40;;;22.90;38.40;;;;;;214235;1309;22616;-55
2021/12/26 20:31:05;;;;;;;;;;;;;;;;;;;;;
2021/12/26 20:36:12;;;;;;;41.80;25.40;;;22.70;39.60;;;;;;214072;1309;24274;-57
2021/12/26 20:41:17;;;;;;;42.70;25.30;;;22.60;40.50;;;;;;214127;1309;22593;-51
2021/12/26 20:46:22;;;;;;;41.70;23.90;;;22.50;41.10;;;;;;213906;1312;22722;-53
2021/12/26 20:51:26;;;;;;;42.10;24.20;;;22.40;41.80;;;;;;214661;1309;22770;-51
2021/12/26 20:56:32;;;;;;;42.40;24.50;;;22.30;42.00;;;;;;214619;1309;25551;-52
2021/12/26 21:01:36;;;;;;;48.60;23.60;;;22.20;42.00;;;;;;214301;1309;26014;-54
2021/12/26 21:06:42;;;;;;;39.40;23.70;;;22.20;42.10;;;;;;214102;1311;25316;-55
2021/12/26 21:11:55;;;;;;;40.70;24.20;;;22.20;42.10;;;;;;214191;1309;22561;-53
2021/12/26 21:16:59;;;;;;;43.20;24.20;;;22.20;42.20;;;;;;214216;1309;22653;-54
2021/12/26 21:22:08;;;;;;;42.60;24.00;;;22.10;42.90;;;;;;214131;1309;24394;-56
2021/12/26 21:27:20;;;;;;;47.00;25.10;;;22.00;42.90;;;;;;214283;1309;24274;-55
2021/12/26 21:32:36;;;;;;;56.40;29.30;;;22.00;42.70;;;;;;214205;1309;24059;-52
2021/12/26 21:37:49;;;;;;;52.90;28.30;;;21.90;41.90;;;;;;214012;1314;22660;-51
2021/12/26 21:42:54;;;;;;;49.90;28.40;;;21.80;41.60;;;;;;214301;1312;25259;-51
2021/12/26 21:48:09;;;;;;;54.70;29.70;;;21.80;41.70;;;;;;214335;1309;22590;-52
2021/12/26 21:53:34;;;;;;;48.30;28.70;;;21.70;42.30;;;;;;214228;1312;24566;-51
2021/12/26 21:58:43;;;;;;;52.40;28.20;;;21.70;42.60;;;;;;214351;1313;25537;-53
2021/12/26 22:03:55;;;;;;;51.30;29.80;;;21.90;44.40;;;;;;214733;1309;22697;-52
2021/12/26 22:08:59;;;;;;;49.50;28.40;;;22.10;44.30;;;;;;214666;1309;24435;-53
2021/12/26 22:14:09;;;;;;;50.60;27.10;;;22.20;44.00;;;;;;214233;1308;24245;-53
2021/12/26 22:19:28;;;;;;;49.40;28.80;;;22.20;44.00;;;;;;214035;1309;25454;-56
2021/12/26 22:24:31;;;;;;;48.60;28.20;;;22.10;45.20;;;;;;214255;1309;25537;-53
2021/12/26 22:29:45;;;;;;;44.30;26.20;;;22.10;45.60;;;;;;214114;1310;26746;-53
2021/12/26 22:35:16;;;;;;;42.10;25.00;;;22.00;46.30;;;;;;214276;1310;24298;-55
2021/12/26 22:41:05;;;;;;;52.30;27.00;;;22.00;46.00;;;;;;214262;1309;23849;-52
2021/12/26 22:46:33;;;;;;;;;;;22.00;45.60;;;;;;214154;1309;23112;-54
2021/12/26 22:51:40;;;;;;;50.40;26.90;;;21.90;45.50;;;;;;214187;1309;22599;-52
2021/12/26 22:56:53;;;;;;;45.40;25.70;;;21.90;45.50;;;;;;214301;1309;22616;-55
2021/12/26 23:07:36;;;;;;;45.40;26.10;;;21.80;45.40;;;;;;213816;1312;24342;-54
2021/12/26 23:12:53;;;;;;;42.30;24.60;;;21.80;45.30;;;;;;214331;1309;25631;-52
2021/12/26 23:17:59;;;;;;;39.20;24.00;;;21.70;45.30;;;;;;214232;1312;22574;-55
2021/12/26 23:23:05;;;;;;;44.40;25.30;;;21.70;45.20;;;;;;214524;1309;22719;-50
2021/12/26 23:28:11;;;;;;;40.80;23.80;;;21.70;45.10;;;;;;214205;1309;25371;-51
2021/12/26 23:33:16;;;;;;;39.20;23.80;;;21.70;45.00;;;;;;214222;1309;22586;-52
2021/12/26 23:38:24;;;;;;;42.70;24.10;;;21.70;44.70;;;;;;214162;1309;23051;-53
2021/12/26 23:43:35;;;;;;;43.40;25.10;;;21.70;44.70;;;;;;214191;1309;25511;-55
2021/12/26 23:48:40;;;;;;;39.90;24.80;;;21.90;44.00;;;;;;214248;1309;23233;-55
2021/12/26 23:53:49;;;;;;;42.10;24.80;;;22.00;44.00;;;;;;214047;1309;22561;-53
2021/12/26 23:58:57;;;;;;;40.50;22.90;;;22.10;43.80;;;;;;214178;1308;25647;-53
